Airfield :
LOGIN :

Register | Disclaimer

   EN    FR    IT 

 










Legend :    VFR   Marginal VFR   IFR   Intensive IFR   Very Intensive IFR
Visi :
Ceiling :
>= 8 km
>= 3000ft
5 to 8 km
1000 to 3000 ft
1500m to 5 km
500 to 1000 ft
800 to 1500m
200 to 500 ft
< 800m
< 200 ft
Symbols :   Thunderstorms  Fog  Heavy snow  Heavy precipitations  Wind > 20 kt
SIGMETs :     Misc.  Thunderstorms  Icing  Turbulence  Mountain Waves  Volcanic Ashes







- Airport Elevation : 1516 ft
- IATA code : AGB


EDMA - Augsburg

CURRENT METAR :
  • 212250Z AUTO VRB02KT 7000 // NCD 05/05 Q1021

EXPIRED METARs :
  • 212220Z AUTO 28001KT 1100 R07/P2000N // NCD 06/06 Q1021
  • 212150Z AUTO 28001KT 9999 // NCD 07/06 Q1021
  • 212120Z AUTO 00000KT 9999 // NCD 07/06 Q1021
  • 212050Z AUTO 00000KT 9999 // NCD 08/06 Q1021
  • 212020Z AUTO VRB01KT 9999 // NCD 10/07 Q1021

TAF TAF EDMA
Valid from the 21 at 18:00 until the 22 at 03:00 UTC


211700Z 2118/2203 VRB03KT CAVOK
TEMPO 2123/2203 2000 BCFG
PROB30
TEMPO 2202/2203 0700 FG
No reported NOTAMs for that airfield.



MET'MAP, your aeronautical weather chart ! - Copyright ORBIFLY December 2007 - Disclaimer

ORBIFLY MET'MAP TEAM :

Programming & Development : Alexandra Zaïnal
Concept & Development : Baudouin d'Aumeries
Co-Development & Prog : Marc-Olivier Méhu
Technical & hardware support : Manuel Goepfert

Contact : metmap@orbifly.com




SOURCES & CREDITS :

   NOAA